sensor_id;sensor_type;location;lat;lon;timestamp;P1;durP1;ratioP1;P2;durP2;ratioP2
33690;SDS011;20026;50.058;18.428;2023-09-08T00:00:01;19.77;;;13.48;;
33690;SDS011;20026;50.058;18.428;2023-09-08T00:02:28;18.17;;;13.55;;
33690;SDS011;20026;50.058;18.428;2023-09-08T00:04:54;19.15;;;13.93;;
33690;SDS011;20026;50.058;18.428;2023-09-08T00:07:20;16.15;;;13.48;;
33690;SDS011;20026;50.058;18.428;2023-09-08T00:09:46;18.58;;;14.23;;
33690;SDS011;20026;50.058;18.428;2023-09-08T00:12:12;18.58;;;13.60;;
33690;SDS011;20026;50.058;18.428;2023-09-08T00:14:38;19.88;;;15.05;;
33690;SDS011;20026;50.058;18.428;2023-09-08T00:17:04;22.27;;;15.60;;
33690;SDS011;20026;50.058;18.428;2023-09-08T00:19:30;19.25;;;14.52;;
33690;SDS011;20026;50.058;18.428;2023-09-08T00:21:56;20.58;;;15.48;;
33690;SDS011;20026;50.058;18.428;2023-09-08T00:24:23;22.42;;;16.13;;
33690;SDS011;20026;50.058;18.428;2023-09-08T00:32:53;23.10;;;17.65;;
33690;SDS011;20026;50.058;18.428;2023-09-08T00:35:19;22.17;;;17.15;;
33690;SDS011;20026;50.058;18.428;2023-09-08T00:37:45;25.30;;;18.08;;
33690;SDS011;20026;50.058;18.428;2023-09-08T00:40:11;23.38;;;17.58;;
33690;SDS011;20026;50.058;18.428;2023-09-08T00:42:37;22.70;;;17.20;;
33690;SDS011;20026;50.058;18.428;2023-09-08T00:45:03;22.73;;;17.75;;
33690;SDS011;20026;50.058;18.428;2023-09-08T00:47:29;23.45;;;17.63;;
33690;SDS011;20026;50.058;18.428;2023-09-08T00:49:55;21.55;;;16.40;;
33690;SDS011;20026;50.058;18.428;2023-09-08T00:52:21;23.75;;;18.10;;
33690;SDS011;20026;50.058;18.428;2023-09-08T00:54:47;26.52;;;18.73;;
33690;SDS011;20026;50.058;18.428;2023-09-08T00:57:13;24.13;;;18.23;;
33690;SDS011;20026;50.058;18.428;2023-09-08T00:59:39;23.63;;;19.63;;
33690;SDS011;20026;50.058;18.428;2023-09-08T01:02:05;26.92;;;19.80;;
33690;SDS011;20026;50.058;18.428;2023-09-08T01:04:31;25.42;;;18.13;;
33690;SDS011;20026;50.058;18.428;2023-09-08T01:06:58;23.23;;;17.55;;
33690;SDS011;20026;50.058;18.428;2023-09-08T01:09:25;24.52;;;19.00;;
33690;SDS011;20026;50.058;18.428;2023-09-08T01:11:51;26.38;;;18.23;;
33690;SDS011;20026;50.058;18.428;2023-09-08T01:14:18;25.95;;;18.98;;
33690;SDS011;20026;50.058;18.428;2023-09-08T01:16:44;30.50;;;18.52;;
33690;SDS011;20026;50.058;18.428;2023-09-08T01:19:11;27.30;;;19.55;;
33690;SDS011;20026;50.058;18.428;2023-09-08T01:26:55;22.55;;;18.27;;
33690;SDS011;20026;50.058;18.428;2023-09-08T01:29:21;24.95;;;17.90;;
33690;SDS011;20026;50.058;18.428;2023-09-08T01:31:49;26.42;;;18.08;;
33690;SDS011;20026;50.058;18.428;2023-09-08T01:34:16;23.58;;;18.52;;
33690;SDS011;20026;50.058;18.428;2023-09-08T01:36:42;24.63;;;18.52;;
33690;SDS011;20026;50.058;18.428;2023-09-08T01:39:08;23.27;;;18.00;;
33690;SDS011;20026;50.058;18.428;2023-09-08T01:41:34;24.35;;;16.98;;
33690;SDS011;20026;50.058;18.428;2023-09-08T01:44:00;22.38;;;16.90;;
33690;SDS011;20026;50.058;18.428;2023-09-08T01:46:30;22.13;;;16.75;;
33690;SDS011;20026;50.058;18.428;2023-09-08T01:48:56;24.30;;;18.25;;
33690;SDS011;20026;50.058;18.428;2023-09-08T01:51:22;22.48;;;17.33;;
33690;SDS011;20026;50.058;18.428;2023-09-08T01:53:48;21.88;;;16.88;;
33690;SDS011;20026;50.058;18.428;2023-09-08T01:56:14;23.13;;;16.95;;
33690;SDS011;20026;50.058;18.428;2023-09-08T01:58:40;22.00;;;16.88;;
33690;SDS011;20026;50.058;18.428;2023-09-08T02:01:06;21.83;;;16.42;;
33690;SDS011;20026;50.058;18.428;2023-09-08T02:03:32;25.60;;;19.38;;
33690;SDS011;20026;50.058;18.428;2023-09-08T02:05:58;22.00;;;17.50;;
33690;SDS011;20026;50.058;18.428;2023-09-08T02:08:24;24.55;;;18.33;;
33690;SDS011;20026;50.058;18.428;2023-09-08T02:10:50;26.85;;;18.10;;
33690;SDS011;20026;50.058;18.428;2023-09-08T02:13:16;24.45;;;18.77;;
33690;SDS011;20026;50.058;18.428;2023-09-08T02:15:42;23.17;;;17.95;;
33690;SDS011;20026;50.058;18.428;2023-09-08T02:18:08;25.30;;;17.35;;
33690;SDS011;20026;50.058;18.428;2023-09-08T02:20:34;25.13;;;17.80;;
33690;SDS011;20026;50.058;18.428;2023-09-08T02:23:03;26.67;;;19.23;;
33690;SDS011;20026;50.058;18.428;2023-09-08T02:25:30;29.35;;;21.00;;
33690;SDS011;20026;50.058;18.428;2023-09-08T02:27:56;29.70;;;20.50;;
33690;SDS011;20026;50.058;18.428;2023-09-08T02:30:22;29.75;;;20.58;;
33690;SDS011;20026;50.058;18.428;2023-09-08T02:32:48;27.73;;;19.75;;
33690;SDS011;20026;50.058;18.428;2023-09-08T02:35:14;26.05;;;20.38;;
33690;SDS011;20026;50.058;18.428;2023-09-08T02:37:40;29.38;;;21.67;;
33690;SDS011;20026;50.058;18.428;2023-09-08T02:40:06;28.08;;;20.17;;
33690;SDS011;20026;50.058;18.428;2023-09-08T02:42:32;27.92;;;19.98;;
33690;SDS011;20026;50.058;18.428;2023-09-08T02:44:58;25.90;;;19.35;;
33690;SDS011;20026;50.058;18.428;2023-09-08T02:47:24;23.50;;;19.30;;
33690;SDS011;20026;50.058;18.428;2023-09-08T02:49:50;31.08;;;18.77;;
33690;SDS011;20026;50.058;18.428;2023-09-08T02:52:16;28.05;;;19.42;;
33690;SDS011;20026;50.058;18.428;2023-09-08T02:54:44;28.70;;;19.85;;
33690;SDS011;20026;50.058;18.428;2023-09-08T02:57:10;26.67;;;19.65;;
33690;SDS011;20026;50.058;18.428;2023-09-08T02:59:36;30.38;;;20.08;;
33690;SDS011;20026;50.058;18.428;2023-09-08T03:02:02;32.83;;;20.63;;
33690;SDS011;20026;50.058;18.428;2023-09-08T03:04:28;34.67;;;22.95;;
33690;SDS011;20026;50.058;18.428;2023-09-08T03:06:55;35.67;;;23.55;;
33690;SDS011;20026;50.058;18.428;2023-09-08T03:09:21;30.65;;;21.55;;
33690;SDS011;20026;50.058;18.428;2023-09-08T03:11:48;30.02;;;20.30;;
33690;SDS011;20026;50.058;18.428;2023-09-08T03:14:14;24.25;;;19.70;;
33690;SDS011;20026;50.058;18.428;2023-09-08T03:16:40;26.67;;;18.77;;
33690;SDS011;20026;50.058;18.428;2023-09-08T03:19:06;25.83;;;19.33;;
33690;SDS011;20026;50.058;18.428;2023-09-08T03:21:32;27.15;;;19.67;;
33690;SDS011;20026;50.058;18.428;2023-09-08T03:23:58;28.38;;;19.33;;
33690;SDS011;20026;50.058;18.428;2023-09-08T03:26:24;31.23;;;21.42;;
33690;SDS011;20026;50.058;18.428;2023-09-08T03:28:50;42.10;;;21.88;;
33690;SDS011;20026;50.058;18.428;2023-09-08T03:31:16;27.92;;;19.52;;
33690;SDS011;20026;50.058;18.428;2023-09-08T03:33:43;29.30;;;20.60;;
33690;SDS011;20026;50.058;18.428;2023-09-08T03:36:09;33.10;;;20.92;;
33690;SDS011;20026;50.058;18.428;2023-09-08T03:38:35;27.13;;;21.60;;
33690;SDS011;20026;50.058;18.428;2023-09-08T03:41:02;29.30;;;21.13;;
33690;SDS011;20026;50.058;18.428;2023-09-08T03:43:28;28.45;;;19.50;;
33690;SDS011;20026;50.058;18.428;2023-09-08T03:45:54;27.80;;;20.42;;
33690;SDS011;20026;50.058;18.428;2023-09-08T03:48:20;29.20;;;21.67;;
33690;SDS011;20026;50.058;18.428;2023-09-08T03:50:46;27.50;;;20.13;;
33690;SDS011;20026;50.058;18.428;2023-09-08T03:53:12;26.02;;;20.15;;
33690;SDS011;20026;50.058;18.428;2023-09-08T03:55:39;25.33;;;20.08;;
33690;SDS011;20026;50.058;18.428;2023-09-08T03:58:05;26.25;;;20.05;;
33690;SDS011;20026;50.058;18.428;2023-09-08T04:00:31;27.35;;;20.33;;
33690;SDS011;20026;50.058;18.428;2023-09-08T04:02:57;34.72;;;24.92;;
33690;SDS011;20026;50.058;18.428;2023-09-08T04:05:23;30.88;;;23.00;;
33690;SDS011;20026;50.058;18.428;2023-09-08T04:07:49;25.00;;;19.30;;
33690;SDS011;20026;50.058;18.428;2023-09-08T04:10:15;28.17;;;18.77;;
33690;SDS011;20026;50.058;18.428;2023-09-08T04:12:41;26.35;;;18.92;;
33690;SDS011;20026;50.058;18.428;2023-09-08T04:15:08;27.17;;;19.75;;
33690;SDS011;20026;50.058;18.428;2023-09-08T04:17:34;23.65;;;18.85;;
33690;SDS011;20026;50.058;18.428;2023-09-08T04:20:01;28.67;;;19.30;;
33690;SDS011;20026;50.058;18.428;2023-09-08T04:22:30;29.63;;;20.45;;
33690;SDS011;20026;50.058;18.428;2023-09-08T04:24:56;34.17;;;21.38;;
33690;SDS011;20026;50.058;18.428;2023-09-08T04:27:23;31.15;;;20.75;;
33690;SDS011;20026;50.058;18.428;2023-09-08T04:29:49;26.25;;;19.23;;
33690;SDS011;20026;50.058;18.428;2023-09-08T04:32:15;24.85;;;18.30;;
33690;SDS011;20026;50.058;18.428;2023-09-08T04:34:41;27.85;;;19.55;;
33690;SDS011;20026;50.058;18.428;2023-09-08T04:37:07;27.05;;;20.75;;
33690;SDS011;20026;50.058;18.428;2023-09-08T04:39:34;25.45;;;20.48;;
33690;SDS011;20026;50.058;18.428;2023-09-08T04:42:00;29.55;;;20.52;;
33690;SDS011;20026;50.058;18.428;2023-09-08T04:44:26;29.63;;;21.33;;
33690;SDS011;20026;50.058;18.428;2023-09-08T04:46:52;26.73;;;20.50;;
33690;SDS011;20026;50.058;18.428;2023-09-08T04:49:18;27.65;;;21.80;;
33690;SDS011;20026;50.058;18.428;2023-09-08T04:51:45;30.67;;;20.60;;
33690;SDS011;20026;50.058;18.428;2023-09-08T04:54:11;27.75;;;20.15;;
33690;SDS011;20026;50.058;18.428;2023-09-08T04:56:38;27.63;;;20.63;;
33690;SDS011;20026;50.058;18.428;2023-09-08T04:59:04;26.73;;;19.52;;
33690;SDS011;20026;50.058;18.428;2023-09-08T05:01:30;24.65;;;18.52;;
33690;SDS011;20026;50.058;18.428;2023-09-08T05:03:57;30.63;;;19.48;;
33690;SDS011;20026;50.058;18.428;2023-09-08T05:06:24;30.10;;;20.40;;
33690;SDS011;20026;50.058;18.428;2023-09-08T05:08:50;25.40;;;18.95;;
33690;SDS011;20026;50.058;18.428;2023-09-08T05:11:16;24.08;;;19.15;;
33690;SDS011;20026;50.058;18.428;2023-09-08T05:13:44;27.60;;;20.30;;
33690;SDS011;20026;50.058;18.428;2023-09-08T05:16:10;22.90;;;18.58;;
33690;SDS011;20026;50.058;18.428;2023-09-08T05:18:37;34.40;;;19.58;;
33690;SDS011;20026;50.058;18.428;2023-09-08T05:21:03;27.17;;;18.92;;
33690;SDS011;20026;50.058;18.428;2023-09-08T05:23:29;25.38;;;17.90;;
33690;SDS011;20026;50.058;18.428;2023-09-08T05:25:55;23.45;;;16.88;;
33690;SDS011;20026;50.058;18.428;2023-09-08T05:28:21;25.85;;;17.23;;
33690;SDS011;20026;50.058;18.428;2023-09-08T05:30:50;22.15;;;15.80;;
33690;SDS011;20026;50.058;18.428;2023-09-08T05:33:16;25.30;;;16.48;;
33690;SDS011;20026;50.058;18.428;2023-09-08T05:35:42;23.38;;;14.98;;
33690;SDS011;20026;50.058;18.428;2023-09-08T05:38:08;19.50;;;15.00;;
33690;SDS011;20026;50.058;18.428;2023-09-08T05:40:34;19.88;;;14.38;;
33690;SDS011;20026;50.058;18.428;2023-09-08T05:43:00;19.58;;;14.35;;
33690;SDS011;20026;50.058;18.428;2023-09-08T05:45:27;18.23;;;14.18;;
33690;SDS011;20026;50.058;18.428;2023-09-08T05:47:53;22.98;;;14.88;;
33690;SDS011;20026;50.058;18.428;2023-09-08T05:50:19;21.02;;;14.57;;
33690;SDS011;20026;50.058;18.428;2023-09-08T05:52:45;20.35;;;14.45;;
33690;SDS011;20026;50.058;18.428;2023-09-08T05:55:11;23.67;;;15.60;;
33690;SDS011;20026;50.058;18.428;2023-09-08T05:57:37;21.92;;;16.83;;
33690;SDS011;20026;50.058;18.428;2023-09-08T06:00:03;22.98;;;16.98;;
33690;SDS011;20026;50.058;18.428;2023-09-08T06:02:30;25.13;;;16.75;;
33690;SDS011;20026;50.058;18.428;2023-09-08T06:04:56;27.17;;;18.48;;
33690;SDS011;20026;50.058;18.428;2023-09-08T06:07:22;21.73;;;16.95;;
33690;SDS011;20026;50.058;18.428;2023-09-08T06:09:48;26.02;;;17.65;;
33690;SDS011;20026;50.058;18.428;2023-09-08T06:12:14;23.40;;;16.95;;
33690;SDS011;20026;50.058;18.428;2023-09-08T06:14:40;23.33;;;16.90;;
33690;SDS011;20026;50.058;18.428;2023-09-08T06:17:06;21.27;;;17.25;;
33690;SDS011;20026;50.058;18.428;2023-09-08T06:19:33;30.70;;;17.13;;
33690;SDS011;20026;50.058;18.428;2023-09-08T06:21:59;23.52;;;16.73;;
33690;SDS011;20026;50.058;18.428;2023-09-08T06:24:25;21.10;;;17.92;;
33690;SDS011;20026;50.058;18.428;2023-09-08T06:26:51;21.83;;;16.42;;
33690;SDS011;20026;50.058;18.428;2023-09-08T06:29:17;21.75;;;16.60;;
33690;SDS011;20026;50.058;18.428;2023-09-08T06:31:43;21.48;;;16.13;;
33690;SDS011;20026;50.058;18.428;2023-09-08T06:34:09;21.95;;;16.02;;
33690;SDS011;20026;50.058;18.428;2023-09-08T06:36:35;21.42;;;16.85;;
33690;SDS011;20026;50.058;18.428;2023-09-08T06:39:01;19.75;;;15.57;;
33690;SDS011;20026;50.058;18.428;2023-09-08T06:41:27;18.67;;;15.82;;
33690;SDS011;20026;50.058;18.428;2023-09-08T06:43:53;17.50;;;14.55;;
33690;SDS011;20026;50.058;18.428;2023-09-08T06:46:19;19.98;;;15.38;;
33690;SDS011;20026;50.058;18.428;2023-09-08T06:48:45;21.02;;;15.25;;
33690;SDS011;20026;50.058;18.428;2023-09-08T06:51:11;23.45;;;14.98;;
33690;SDS011;20026;50.058;18.428;2023-09-08T06:53:37;18.92;;;14.88;;
33690;SDS011;20026;50.058;18.428;2023-09-08T06:56:04;18.02;;;14.93;;
33690;SDS011;20026;50.058;18.428;2023-09-08T06:58:30;22.05;;;13.63;;
33690;SDS011;20026;50.058;18.428;2023-09-08T07:00:56;19.70;;;13.93;;
33690;SDS011;20026;50.058;18.428;2023-09-08T07:03:22;18.98;;;14.60;;
33690;SDS011;20026;50.058;18.428;2023-09-08T07:05:49;24.07;;;16.60;;
33690;SDS011;20026;50.058;18.428;2023-09-08T07:08:15;27.98;;;18.65;;
33690;SDS011;20026;50.058;18.428;2023-09-08T07:10:43;24.08;;;17.75;;
33690;SDS011;20026;50.058;18.428;2023-09-08T07:13:09;21.73;;;15.30;;
33690;SDS011;20026;50.058;18.428;2023-09-08T07:15:35;18.17;;;13.93;;
33690;SDS011;20026;50.058;18.428;2023-09-08T07:18:01;19.90;;;15.73;;
33690;SDS011;20026;50.058;18.428;2023-09-08T07:20:27;23.90;;;16.88;;
33690;SDS011;20026;50.058;18.428;2023-09-08T07:22:53;22.48;;;16.05;;
33690;SDS011;20026;50.058;18.428;2023-09-08T07:25:19;20.65;;;16.45;;
33690;SDS011;20026;50.058;18.428;2023-09-08T07:27:45;19.88;;;16.05;;
33690;SDS011;20026;50.058;18.428;2023-09-08T07:30:11;22.55;;;14.82;;
33690;SDS011;20026;50.058;18.428;2023-09-08T07:32:38;20.90;;;14.95;;
33690;SDS011;20026;50.058;18.428;2023-09-08T07:35:04;23.38;;;14.55;;
33690;SDS011;20026;50.058;18.428;2023-09-08T07:37:30;22.83;;;15.10;;
33690;SDS011;20026;50.058;18.428;2023-09-08T07:39:56;22.45;;;15.10;;
33690;SDS011;20026;50.058;18.428;2023-09-08T07:42:23;21.98;;;14.60;;
33690;SDS011;20026;50.058;18.428;2023-09-08T07:44:50;20.13;;;15.77;;
33690;SDS011;20026;50.058;18.428;2023-09-08T07:47:16;24.17;;;14.32;;
33690;SDS011;20026;50.058;18.428;2023-09-08T07:49:44;19.58;;;14.80;;
33690;SDS011;20026;50.058;18.428;2023-09-08T07:52:12;21.85;;;16.85;;
33690;SDS011;20026;50.058;18.428;2023-09-08T07:54:37;16.35;;;14.25;;
33690;SDS011;20026;50.058;18.428;2023-09-08T07:57:04;19.88;;;14.55;;
33690;SDS011;20026;50.058;18.428;2023-09-08T07:59:30;20.40;;;14.80;;
33690;SDS011;20026;50.058;18.428;2023-09-08T08:01:56;19.23;;;13.93;;
33690;SDS011;20026;50.058;18.428;2023-09-08T08:04:22;18.80;;;12.85;;
33690;SDS011;20026;50.058;18.428;2023-09-08T08:06:48;18.10;;;12.85;;
33690;SDS011;20026;50.058;18.428;2023-09-08T08:09:14;21.88;;;13.40;;
33690;SDS011;20026;50.058;18.428;2023-09-08T08:11:40;20.60;;;12.77;;
33690;SDS011;20026;50.058;18.428;2023-09-08T08:14:07;17.05;;;12.18;;
33690;SDS011;20026;50.058;18.428;2023-09-08T08:16:33;21.15;;;12.93;;
33690;SDS011;20026;50.058;18.428;2023-09-08T08:18:59;16.73;;;13.07;;
33690;SDS011;20026;50.058;18.428;2023-09-08T08:21:25;17.60;;;12.40;;
33690;SDS011;20026;50.058;18.428;2023-09-08T08:23:51;16.48;;;12.50;;
33690;SDS011;20026;50.058;18.428;2023-09-08T08:26:17;18.60;;;12.48;;
33690;SDS011;20026;50.058;18.428;2023-09-08T08:28:44;17.63;;;12.20;;
33690;SDS011;20026;50.058;18.428;2023-09-08T08:31:11;22.00;;;13.95;;
33690;SDS011;20026;50.058;18.428;2023-09-08T08:33:37;17.13;;;12.90;;
33690;SDS011;20026;50.058;18.428;2023-09-08T08:36:03;16.88;;;11.35;;
33690;SDS011;20026;50.058;18.428;2023-09-08T08:38:29;13.75;;;11.45;;
33690;SDS011;20026;50.058;18.428;2023-09-08T08:40:57;15.20;;;11.15;;
33690;SDS011;20026;50.058;18.428;2023-09-08T08:43:27;17.17;;;11.10;;
33690;SDS011;20026;50.058;18.428;2023-09-08T08:45:54;23.02;;;13.90;;
33690;SDS011;20026;50.058;18.428;2023-09-08T08:48:20;22.08;;;17.88;;
33690;SDS011;20026;50.058;18.428;2023-09-08T08:50:47;11.05;;;8.95;;
33690;SDS011;20026;50.058;18.428;2023-09-08T08:53:13;14.07;;;11.38;;
33690;SDS011;20026;50.058;18.428;2023-09-08T08:55:39;13.32;;;9.65;;
33690;SDS011;20026;50.058;18.428;2023-09-08T08:58:06;14.35;;;9.88;;
33690;SDS011;20026;50.058;18.428;2023-09-08T09:00:35;12.48;;;9.48;;
33690;SDS011;20026;50.058;18.428;2023-09-08T09:03:03;13.93;;;9.73;;
33690;SDS011;20026;50.058;18.428;2023-09-08T09:05:30;11.50;;;9.60;;
33690;SDS011;20026;50.058;18.428;2023-09-08T09:07:57;16.70;;;8.77;;
33690;SDS011;20026;50.058;18.428;2023-09-08T09:10:23;11.75;;;8.15;;
33690;SDS011;20026;50.058;18.428;2023-09-08T09:12:49;9.45;;;8.55;;
33690;SDS011;20026;50.058;18.428;2023-09-08T09:15:15;10.45;;;9.02;;
33690;SDS011;20026;50.058;18.428;2023-09-08T09:17:42;10.57;;;8.32;;
33690;SDS011;20026;50.058;18.428;2023-09-08T09:22:42;12.60;;;8.65;;
33690;SDS011;20026;50.058;18.428;2023-09-08T09:25:08;9.80;;;7.82;;
33690;SDS011;20026;50.058;18.428;2023-09-08T09:27:35;9.45;;;8.13;;
33690;SDS011;20026;50.058;18.428;2023-09-08T09:30:07;8.45;;;7.38;;
33690;SDS011;20026;50.058;18.428;2023-09-08T09:32:34;9.48;;;7.10;;
33690;SDS011;20026;50.058;18.428;2023-09-08T09:35:00;9.77;;;7.75;;
33690;SDS011;20026;50.058;18.428;2023-09-08T09:37:26;9.13;;;7.40;;
33690;SDS011;20026;50.058;18.428;2023-09-08T09:39:54;10.55;;;7.72;;
33690;SDS011;20026;50.058;18.428;2023-09-08T09:42:20;10.30;;;7.13;;
33690;SDS011;20026;50.058;18.428;2023-09-08T09:44:47;9.75;;;7.18;;
33690;SDS011;20026;50.058;18.428;2023-09-08T09:47:13;12.00;;;9.20;;
33690;SDS011;20026;50.058;18.428;2023-09-08T09:49:43;10.30;;;7.18;;
33690;SDS011;20026;50.058;18.428;2023-09-08T09:52:11;11.50;;;8.23;;
33690;SDS011;20026;50.058;18.428;2023-09-08T09:57:04;7.68;;;6.88;;
33690;SDS011;20026;50.058;18.428;2023-09-08T09:59:30;7.78;;;7.00;;
33690;SDS011;20026;50.058;18.428;2023-09-08T10:01:56;7.35;;;6.55;;
33690;SDS011;20026;50.058;18.428;2023-09-08T10:04:23;9.40;;;7.18;;
33690;SDS011;20026;50.058;18.428;2023-09-08T10:06:50;9.85;;;6.85;;
33690;SDS011;20026;50.058;18.428;2023-09-08T10:09:17;8.63;;;7.72;;
33690;SDS011;20026;50.058;18.428;2023-09-08T10:11:47;10.20;;;7.63;;
33690;SDS011;20026;50.058;18.428;2023-09-08T10:14:17;15.80;;;14.07;;
33690;SDS011;20026;50.058;18.428;2023-09-08T10:16:44;14.25;;;8.23;;
33690;SDS011;20026;50.058;18.428;2023-09-08T10:19:14;11.55;;;7.68;;
33690;SDS011;20026;50.058;18.428;2023-09-08T10:21:42;9.80;;;7.20;;
33690;SDS011;20026;50.058;18.428;2023-09-08T10:24:29;8.70;;;7.80;;
33690;SDS011;20026;50.058;18.428;2023-09-08T10:27:00;9.85;;;7.15;;
33690;SDS011;20026;50.058;18.428;2023-09-08T10:29:28;10.23;;;6.85;;
33690;SDS011;20026;50.058;18.428;2023-09-08T10:31:55;12.35;;;8.70;;
33690;SDS011;20026;50.058;18.428;2023-09-08T10:34:21;10.77;;;7.72;;
33690;SDS011;20026;50.058;18.428;2023-09-08T10:36:50;9.20;;;7.55;;
33690;SDS011;20026;50.058;18.428;2023-09-08T10:39:29;11.00;;;7.50;;
33690;SDS011;20026;50.058;18.428;2023-09-08T10:44:59;8.98;;;7.28;;
33690;SDS011;20026;50.058;18.428;2023-09-08T10:47:33;8.40;;;7.43;;
33690;SDS011;20026;50.058;18.428;2023-09-08T10:49:59;10.68;;;6.80;;
33690;SDS011;20026;50.058;18.428;2023-09-08T10:52:25;10.02;;;7.30;;
33690;SDS011;20026;50.058;18.428;2023-09-08T10:54:52;15.77;;;11.95;;
33690;SDS011;20026;50.058;18.428;2023-09-08T10:57:22;10.95;;;7.40;;
33690;SDS011;20026;50.058;18.428;2023-09-08T11:02:34;9.60;;;7.50;;
33690;SDS011;20026;50.058;18.428;2023-09-08T11:05:00;13.23;;;7.40;;
33690;SDS011;20026;50.058;18.428;2023-09-08T11:07:27;10.05;;;7.25;;
33690;SDS011;20026;50.058;18.428;2023-09-08T11:09:53;11.68;;;7.63;;
33690;SDS011;20026;50.058;18.428;2023-09-08T11:12:19;8.75;;;7.38;;
33690;SDS011;20026;50.058;18.428;2023-09-08T11:14:48;10.95;;;8.23;;
33690;SDS011;20026;50.058;18.428;2023-09-08T11:17:14;9.82;;;7.20;;
33690;SDS011;20026;50.058;18.428;2023-09-08T11:19:47;12.55;;;7.05;;
33690;SDS011;20026;50.058;18.428;2023-09-08T11:22:13;10.88;;;7.43;;
33690;SDS011;20026;50.058;18.428;2023-09-08T11:24:41;22.48;;;8.07;;
33690;SDS011;20026;50.058;18.428;2023-09-08T11:27:07;10.63;;;7.18;;
33690;SDS011;20026;50.058;18.428;2023-09-08T11:29:33;9.43;;;7.22;;
33690;SDS011;20026;50.058;18.428;2023-09-08T11:31:59;10.30;;;6.88;;
33690;SDS011;20026;50.058;18.428;2023-09-08T11:34:25;317.35;;;25.08;;
33690;SDS011;20026;50.058;18.428;2023-09-08T11:36:52;9.00;;;6.88;;
33690;SDS011;20026;50.058;18.428;2023-09-08T11:39:18;14.98;;;8.02;;
33690;SDS011;20026;50.058;18.428;2023-09-08T11:41:44;10.65;;;7.30;;
33690;SDS011;20026;50.058;18.428;2023-09-08T11:44:14;12.63;;;7.47;;
33690;SDS011;20026;50.058;18.428;2023-09-08T11:46:41;8.98;;;7.05;;
33690;SDS011;20026;50.058;18.428;2023-09-08T11:49:07;11.20;;;7.65;;
33690;SDS011;20026;50.058;18.428;2023-09-08T11:51:33;13.10;;;8.13;;
33690;SDS011;20026;50.058;18.428;2023-09-08T11:53:59;11.80;;;7.85;;
33690;SDS011;20026;50.058;18.428;2023-09-08T11:56:25;11.75;;;8.00;;
33690;SDS011;20026;50.058;18.428;2023-09-08T11:58:51;12.27;;;7.72;;
33690;SDS011;20026;50.058;18.428;2023-09-08T12:01:18;13.35;;;8.88;;
33690;SDS011;20026;50.058;18.428;2023-09-08T12:03:51;13.18;;;9.30;;
33690;SDS011;20026;50.058;18.428;2023-09-08T12:06:17;13.50;;;9.38;;
33690;SDS011;20026;50.058;18.428;2023-09-08T12:08:44;10.70;;;8.73;;
33690;SDS011;20026;50.058;18.428;2023-09-08T12:11:10;14.90;;;9.05;;
33690;SDS011;20026;50.058;18.428;2023-09-08T12:13:37;14.93;;;9.10;;
33690;SDS011;20026;50.058;18.428;2023-09-08T12:16:16;12.80;;;9.40;;
33690;SDS011;20026;50.058;18.428;2023-09-08T12:18:42;10.38;;;8.40;;
33690;SDS011;20026;50.058;18.428;2023-09-08T12:21:12;12.23;;;7.80;;
33690;SDS011;20026;50.058;18.428;2023-09-08T12:23:50;14.10;;;9.02;;
33690;SDS011;20026;50.058;18.428;2023-09-08T12:26:17;11.63;;;8.10;;
33690;SDS011;20026;50.058;18.428;2023-09-08T12:28:43;13.50;;;8.75;;
33690;SDS011;20026;50.058;18.428;2023-09-08T12:31:09;14.25;;;8.93;;
33690;SDS011;20026;50.058;18.428;2023-09-08T12:33:36;10.90;;;8.27;;
33690;SDS011;20026;50.058;18.428;2023-09-08T12:36:15;13.60;;;8.88;;
33690;SDS011;20026;50.058;18.428;2023-09-08T12:38:46;13.00;;;8.65;;
33690;SDS011;20026;50.058;18.428;2023-09-08T12:41:14;16.13;;;8.15;;
33690;SDS011;20026;50.058;18.428;2023-09-08T12:43:40;16.88;;;8.75;;
33690;SDS011;20026;50.058;18.428;2023-09-08T12:46:06;12.18;;;7.93;;
33690;SDS011;20026;50.058;18.428;2023-09-08T12:48:32;15.50;;;9.20;;
33690;SDS011;20026;50.058;18.428;2023-09-08T12:50:58;11.75;;;8.43;;
33690;SDS011;20026;50.058;18.428;2023-09-08T12:53:24;11.98;;;8.68;;
33690;SDS011;20026;50.058;18.428;2023-09-08T12:55:53;12.65;;;9.30;;
33690;SDS011;20026;50.058;18.428;2023-09-08T12:58:20;12.20;;;9.82;;
33690;SDS011;20026;50.058;18.428;2023-09-08T13:00:46;12.30;;;8.98;;
33690;SDS011;20026;50.058;18.428;2023-09-08T13:03:12;12.82;;;7.88;;
33690;SDS011;20026;50.058;18.428;2023-09-08T13:05:38;11.20;;;8.00;;
33690;SDS011;20026;50.058;18.428;2023-09-08T13:08:04;12.98;;;8.02;;
33690;SDS011;20026;50.058;18.428;2023-09-08T13:10:30;14.05;;;8.48;;
33690;SDS011;20026;50.058;18.428;2023-09-08T13:12:56;12.77;;;8.27;;
33690;SDS011;20026;50.058;18.428;2023-09-08T13:15:22;10.95;;;8.32;;
33690;SDS011;20026;50.058;18.428;2023-09-08T13:17:49;9.38;;;7.78;;
33690;SDS011;20026;50.058;18.428;2023-09-08T13:20:15;10.23;;;7.60;;
33690;SDS011;20026;50.058;18.428;2023-09-08T13:22:41;11.32;;;7.32;;
33690;SDS011;20026;50.058;18.428;2023-09-08T13:25:07;12.43;;;7.47;;
33690;SDS011;20026;50.058;18.428;2023-09-08T13:27:33;12.73;;;8.15;;
33690;SDS011;20026;50.058;18.428;2023-09-08T13:30:09;9.38;;;7.22;;
33690;SDS011;20026;50.058;18.428;2023-09-08T13:32:35;10.85;;;7.30;;
33690;SDS011;20026;50.058;18.428;2023-09-08T13:35:01;12.30;;;6.90;;
33690;SDS011;20026;50.058;18.428;2023-09-08T13:37:27;13.32;;;7.85;;
33690;SDS011;20026;50.058;18.428;2023-09-08T13:39:55;11.68;;;7.70;;
33690;SDS011;20026;50.058;18.428;2023-09-08T13:42:21;12.02;;;7.65;;
33690;SDS011;20026;50.058;18.428;2023-09-08T13:44:47;11.18;;;8.80;;
33690;SDS011;20026;50.058;18.428;2023-09-08T13:47:17;12.52;;;7.95;;
33690;SDS011;20026;50.058;18.428;2023-09-08T13:49:43;12.00;;;7.93;;
33690;SDS011;20026;50.058;18.428;2023-09-08T13:52:09;11.65;;;7.78;;
33690;SDS011;20026;50.058;18.428;2023-09-08T13:54:35;14.65;;;8.27;;
33690;SDS011;20026;50.058;18.428;2023-09-08T13:57:02;10.43;;;7.20;;
33690;SDS011;20026;50.058;18.428;2023-09-08T13:59:29;10.27;;;7.78;;
33690;SDS011;20026;50.058;18.428;2023-09-08T14:01:56;9.85;;;7.57;;
33690;SDS011;20026;50.058;18.428;2023-09-08T14:04:28;10.13;;;8.15;;
33690;SDS011;20026;50.058;18.428;2023-09-08T14:06:54;8.95;;;6.65;;
33690;SDS011;20026;50.058;18.428;2023-09-08T14:09:20;11.82;;;7.43;;
33690;SDS011;20026;50.058;18.428;2023-09-08T14:11:46;7.60;;;6.10;;
33690;SDS011;20026;50.058;18.428;2023-09-08T14:14:12;10.35;;;6.40;;
33690;SDS011;20026;50.058;18.428;2023-09-08T14:16:38;10.90;;;6.60;;
33690;SDS011;20026;50.058;18.428;2023-09-08T14:19:04;10.90;;;6.55;;
33690;SDS011;20026;50.058;18.428;2023-09-08T14:21:34;9.00;;;6.60;;
33690;SDS011;20026;50.058;18.428;2023-09-08T14:24:02;10.40;;;6.50;;
33690;SDS011;20026;50.058;18.428;2023-09-08T14:26:28;9.60;;;6.60;;
33690;SDS011;20026;50.058;18.428;2023-09-08T14:28:54;12.77;;;6.93;;
33690;SDS011;20026;50.058;18.428;2023-09-08T14:31:20;10.63;;;6.82;;
33690;SDS011;20026;50.058;18.428;2023-09-08T14:33:46;9.02;;;6.70;;